Latest Weather Observations for Jervois

IDD60801

Issued at 9:41 pm CST Friday 15 November 2019 (issued every 10 minutes, with the page automatically refreshed every 10 minutes)

About weather observations | Map of weather stations | Latest weather observations for NT | Other Formats
Station Details ID: 015602 Name: JERVOIS Lat: -22.95 Lon: 136.14 Height: 328.0 m
Data from the previous 72 hours. | See also: Recent months at Jervois
Date/Time
CST
Temp
°C
App
Temp
°C
Dew
Point
°C
Rel
Hum
%
Delta-T
°C
Wind Press
QNH
hPa
Press
MSL
hPa
Rain since
9am
mm
Dir  Spd
km/h
Gust
km/h
Spd
kts
Gust
kts
15/09:30pm 24.7 20.1 -7.7 11 13.1 SSE 9 11 5 6 1016.5 1014.4 0.0
15/09:00pm 25.5 20.9 -8.3 10 13.6 SE 9 11 5 6 1016.3 1014.2 0.0
15/08:30pm 25.0 20.4 -7.5 11 13.2 SSE 9 11 5 6 1016.1 1014.0 0.0
15/08:00pm 25.9 21.7 -8.0 10 13.8 SSE 7 7 4 4 1015.9 1013.8 0.0
15/07:30pm 28.6 24.3 -8.8 8 15.4 SE 7 11 4 6 1015.4 1013.3 0.0
15/07:00pm 30.3 25.6 -9.3 7 16.4 SE 9 13 5 7 1015.0 1012.9 0.0
15/06:30pm 31.8 26.4 -8.2 7 17.1 SSE 13 19 7 10 1014.5 1012.5 0.0
15/06:00pm 32.7 26.5 -9.5 6 17.8 SE 17 26 9 14 1014.1 1012.0 0.0
15/05:30pm 33.3 27.5 -9.1 6 18.1 ESE 15 26 8 14 1013.8 1011.7 0.0
15/05:00pm 33.7 27.5 -8.8 6 18.3 SE 17 24 9 13 1013.5 1011.4 0.0
15/04:30pm 34.2 28.0 -8.5 6 18.5 ESE 17 26 9 14 1013.3 1011.2 0.0
15/04:00pm 33.8 28.8 -8.7 6 18.3 S 11 19 6 10 1013.4 1011.3 0.0
15/03:30pm 33.9 27.1 -8.7 6 18.4 ESE 20 30 11 16 1013.7 1011.6 0.0
15/03:00pm 33.6 27.8 -8.9 6 18.2 SE 15 28 8 15 1013.8 1011.7 0.0
15/02:30pm 34.3 28.9 -8.4 6 18.6 SSE 13 26 7 14 1014.1 1012.0 0.0
15/02:00pm 33.4 27.6 -9.0 6 18.1 SE 15 28 8 15 1014.5 1012.5 0.0
15/01:30pm 33.1 27.3 -9.2 6 18.0 SE 15 28 8 15 1015.0 1012.9 0.0
15/01:00pm 33.1 26.9 -9.2 6 18.0 SSE 17 28 9 15 1015.4 1013.3 0.0
15/12:30pm 32.3 25.8 -7.8 7 17.3 SE 19 28 10 15 1015.8 1013.7 0.0
15/12:00pm 32.2 26.1 -7.9 7 17.3 ESE 17 26 9 14 1016.3 1014.2 0.0
15/11:30am 30.6 24.0 -9.1 7 16.5 SE 19 32 10 17 1016.9 1014.8 0.0
15/11:00am 30.3 23.8 -7.6 8 16.2 ESE 19 28 10 15 1017.1 1015.1 0.0
15/10:30am 31.3 24.7 -6.8 8 16.6 ESE 20 33 11 18 1017.4 1015.4 0.0
15/10:00am 29.5 22.9 -6.7 9 15.6 SE 20 33 11 18 1017.7 1015.7 0.0
15/09:30am 29.2 22.8 -6.9 9 15.4 ESE 19 28 10 15 1018.1 1016.0 0.0
15/09:00am 28.1 21.8 -6.3 10 14.7 SE 19 26 10 14 1018.0 1015.9 0.0
15/08:30am 27.4 21.5 -5.6 11 14.2 ESE 17 24 9 13 1017.9 1015.8 0.0
15/08:00am 25.7 19.8 -5.8 12 13.3 ESE 17 24 9 13 1017.6 1015.6 0.0
15/07:30am 23.6 18.8 -6.4 13 12.3 ESE 11 17 6 9 1017.4 1015.4 0.0
15/07:00am 20.2 17.0 -7.2 15 10.7 SSE 2 7 1 4 1017.2 1015.2 0.0
15/06:30am 15.8 12.7 -6.5 21 8.4 WSW 2 6 1 3 1016.9 1014.8 0.0
15/06:00am 12.0 7.9 -8.5 23 7.1 S 6 7 3 4 1016.6 1014.5 0.0
15/05:30am 11.8 8.5 -8.6 23 7.0 S 2 6 1 3 1016.3 1014.2 0.0
15/05:00am 11.6 8.6 -9.4 22 7.1 CALM 0 0 0 0 1016.2 1014.1 0.0
15/04:30am 12.4 9.4 -9.9 20 7.5 CALM 0 0 0 0 1016.0 1013.9 0.0
15/04:00am 14.1 10.4 -9.1 19 8.1 SE 4 6 2 3 1015.9 1013.8 0.0
15/03:30am 15.5 11.5 -8.0 19 8.5 SE 6 9 3 5 1015.9 1013.8 0.0
15/03:00am 14.5 10.7 -9.5 18 8.3 SSE 4 7 2 4 1015.9 1013.8 0.0
15/02:30am 16.4 12.9 -11.1 14 9.5 SSE 2 6 1 3 1015.8 1013.7 0.0
15/02:00am 18.4 13.7 -9.5 14 10.2 SSE 9 11 5 6 1015.8 1013.7 0.0
15/01:30am 18.8 13.6 -10.2 13 10.5 SE 11 13 6 7 1016.0 1013.9 0.0
15/01:00am 18.6 13.8 -10.3 13 10.4 SSE 9 11 5 6 1016.2 1014.1 0.0
15/12:30am 19.4 14.6 -10.7 12 10.8 SSE 9 13 5 7 1016.5 1014.4 0.0
15/12:00am 19.9 15.1 -10.3 12 11.0 SSE 9 11 5 6 1016.6 1014.5 0.0
 
Date/Time
CST
Temp
°C
App
Temp
°C
Dew
Point
°C
Rel
Hum
%
Delta-T
°C
Wind Press
QNH
hPa
Press
MSL
hPa
Rain since
9am
mm
Dir  Spd
km/h
Gust
km/h
Spd
kts
Gust
kts
14/11:30pm 20.6 15.8 -10.9 11 11.4 SE 9 13 5 7 1016.7 1014.6 0.0
14/11:00pm 19.9 15.0 -11.4 11 11.2 SSE 9 11 5 6 1016.9 1014.8 0.0
14/10:30pm 20.8 16.0 -10.7 11 11.5 SSE 9 9 5 5 1017.0 1015.0 0.0
14/10:00pm 22.1 17.7 -10.9 10 12.2 SSE 7 11 4 6 1017.0 1015.0 0.0
14/09:30pm 23.3 18.4 -11.3 9 12.9 SSE 9 13 5 7 1016.7 1014.6 0.0
14/09:00pm 23.2 18.3 -11.4 9 12.8 SSE 9 11 5 6 1016.6 1014.5 0.0
14/08:30pm 24.0 19.5 -12.2 8 13.3 SSE 7 11 4 6 1016.5 1014.4 0.0
14/08:00pm 25.1 20.5 -13.1 7 14.0 SSE 7 9 4 5 1016.2 1014.1 0.0
14/07:30pm 26.6 21.6 -13.9 6 14.9 SSE 9 11 5 6 1015.8 1013.7 0.0
14/07:00pm 28.3 22.8 -14.9 5 15.9 SE 11 17 6 9 1015.5 1013.4 0.0
14/06:30pm 29.6 23.3 -16.7 4 16.8 SE 15 20 8 11 1015.1 1013.0 0.0
14/06:00pm 30.4 24.1 -16.1 4 17.2 SE 15 20 8 11 1015.0 1012.9 0.0
14/05:30pm 31.6 25.4 -15.3 4 17.8 SSE 15 24 8 13 1014.9 1012.8 0.0
14/05:00pm 31.5 24.9 -15.4 4 17.7 SE 17 28 9 15 1015.0 1012.9 0.0
14/04:30pm 31.8 25.0 -18.6 3 18.1 SE 17 28 9 15 1015.0 1012.9 0.0
14/04:00pm 32.3 26.1 -14.8 4 18.1 SE 15 20 8 11 1015.1 1013.0 0.0
14/03:30pm 32.5 25.9 -14.7 4 18.2 SSE 17 30 9 16 1015.6 1013.5 0.0
14/03:00pm 31.5 24.2 -18.8 3 18.0 ESE 20 33 11 18 1016.1 1014.0 0.0
14/02:30pm 31.7 24.9 -18.6 3 18.1 SSE 17 28 9 15 1016.3 1014.2 0.0
14/02:00pm 31.5 24.9 -15.4 4 17.7 ESE 17 35 9 19 1016.6 1014.5 0.0
14/01:30pm 30.9 24.4 -13.1 5 17.1 ESE 17 28 9 15 1017.1 1015.1 0.0
14/01:00pm 30.4 23.5 -13.4 5 16.9 SE 19 35 10 19 1017.7 1015.7 0.0
14/12:30pm 30.6 24.1 -13.3 5 17.0 ESE 17 30 9 16 1018.3 1016.2 0.0
14/12:00pm 28.9 21.9 -12.2 6 15.9 ESE 20 35 11 19 1018.9 1016.8 0.0
14/11:30am 28.9 22.2 -10.3 7 15.7 SE 19 33 10 18 1019.3 1017.2 0.0
14/11:00am 27.8 21.2 -9.4 8 15.0 SE 19 30 10 16 1019.9 1017.9 0.0
14/10:30am 27.3 20.2 -8.3 9 14.5 SE 22 32 12 17 1020.2 1018.2 0.0
14/10:00am 26.4 19.7 -7.6 10 14.0 SE 20 30 11 16 1020.6 1018.6 0.0
14/09:30am 25.3 18.7 -7.2 11 13.3 SE 20 32 11 17 1020.9 1018.9 0.0
14/09:00am 24.4 17.1 -6.8 12 12.7 ESE 24 35 13 19 1021.1 1019.0 0.0
14/08:30am 23.0 15.6 -6.9 13 12.0 ESE 24 32 13 17 1021.2 1019.1 0.0
14/08:00am 22.2 15.8 -6.5 14 11.6 ESE 19 28 10 15 1021.1 1019.0 0.0
14/07:30am 20.9 14.3 -6.7 15 10.9 SE 20 30 11 16 1020.7 1018.7 0.0
14/07:00am 19.7 13.8 -6.0 17 10.2 SE 17 24 9 13 1020.5 1018.5 0.0
14/06:30am 18.2 13.0 -5.8 19 9.4 SSE 13 19 7 10 1020.2 1018.2 0.0
14/06:00am 16.6 12.2 -5.8 21 8.6 SSE 9 11 5 6 1019.8 1017.8 0.0
14/05:30am 16.6 11.8 -5.8 21 8.6 SSE 11 15 6 8 1019.4 1017.3 0.0
14/05:00am 17.0 12.2 -6.1 20 8.9 SSE 11 15 6 8 1019.2 1017.1 0.0
14/04:30am 17.4 12.6 -6.4 19 9.1 SSE 11 15 6 8 1019.0 1016.9 0.0
14/04:00am 17.7 12.9 -6.2 19 9.3 SE 11 15 6 8 1018.7 1016.6 0.0
14/03:30am 18.1 13.3 -5.9 19 9.4 SSE 11 15 6 8 1018.7 1016.6 0.0
14/03:00am 18.6 13.8 -6.2 18 9.7 SSE 11 17 6 9 1018.9 1016.8 0.0
14/02:30am 19.3 14.1 -6.3 17 10.0 SSE 13 20 7 11 1018.7 1016.6 0.0
14/02:00am 19.6 14.3 -6.9 16 10.3 SSE 13 17 7 9 1018.7 1016.6 0.0
14/01:30am 20.0 14.8 -6.5 16 10.4 SSE 13 20 7 11 1018.8 1016.7 0.0
14/01:00am 20.6 15.3 -6.9 15 10.8 SSE 13 19 7 10 1019.0 1016.9 0.0
14/12:30am 21.1 15.8 -7.4 14 11.1 SSE 13 20 7 11 1019.3 1017.2 0.0
14/12:00am 22.0 15.9 -7.6 13 11.6 SSE 17 26 9 14 1019.6 1017.5 0.0
 
Date/Time
CST
Temp
°C
App
Temp
°C
Dew
Point
°C
Rel
Hum
%
Delta-T
°C
Wind Press
QNH
hPa
Press
MSL
hPa
Rain since
9am
mm
Dir  Spd
km/h
Gust
km/h
Spd
kts
Gust
kts
13/11:30pm 21.5 16.5 -8.0 13 11.4 SSE 11 17 6 9 1019.7 1017.6 0.0
13/11:00pm 22.1 16.8 -7.6 13 11.7 SSE 13 17 7 9 1019.9 1017.9 0.0
13/10:30pm 22.6 17.2 -8.2 12 12.0 SSE 13 17 7 9 1019.9 1017.9 0.0
13/10:00pm 23.1 17.8 -7.8 12 12.3 SSE 13 17 7 9 1019.8 1017.8 0.0
13/09:30pm 23.8 18.4 -8.4 11 12.7 SSE 13 17 7 9 1019.7 1017.6 0.0
13/09:00pm 24.7 19.3 -8.9 10 13.2 SSE 13 22 7 12 1019.5 1017.4 0.0
13/08:30pm 25.5 20.1 -8.3 10 13.6 SSE 13 20 7 11 1019.1 1017.0 0.0
13/08:00pm 26.0 20.5 -9.3 9 14.0 SSE 13 17 7 9 1018.8 1016.7 0.0
13/07:30pm 27.0 21.6 -8.5 9 14.4 SSE 13 20 7 11 1018.4 1016.3 0.0
13/07:00pm 27.8 22.1 -7.9 9 14.8 SSE 15 30 8 16 1018.0 1015.9 0.0
13/06:30pm 28.8 22.6 -8.7 8 15.4 SSE 17 24 9 13 1017.5 1015.5 0.0
13/06:00pm 29.6 23.6 -6.6 9 15.6 SSE 17 28 9 15 1017.3 1015.3 0.0
13/05:30pm 30.1 22.7 -7.7 8 16.0 SSE 24 35 13 19 1017.0 1015.0 0.0
13/05:00pm 31.0 24.5 -5.5 9 16.2 SSE 20 35 11 19 1016.9 1014.8 0.0
13/04:30pm 31.4 24.8 -6.8 8 16.6 SSE 20 33 11 18 1016.8 1014.7 0.0
13/04:00pm 31.5 24.3 -5.2 9 16.5 SSE 24 37 13 20 1017.0 1015.0 0.0
13/03:30pm 31.2 24.4 -5.4 9 16.3 SSE 22 37 12 20 1017.0 1015.0 0.0
13/03:00pm 31.4 25.0 -5.2 9 16.4 SSE 20 32 11 17 1017.2 1015.2 0.0
13/02:30pm 30.9 24.1 -5.6 9 16.2 SE 22 35 12 19 1017.4 1015.4 0.0
13/02:00pm 30.9 23.8 -4.2 10 15.9 SE 24 35 13 19 1017.7 1015.7 0.0
13/01:30pm 29.9 23.5 -5.0 10 15.5 SSE 20 35 11 19 1018.2 1016.1 0.0
13/01:00pm 29.5 22.3 -5.3 10 15.3 SSE 24 43 13 23 1018.5 1016.4 0.0
13/12:30pm 29.2 22.5 -4.3 11 15.0 SSE 22 35 12 19 1018.7 1016.6 0.0
13/12:00pm 28.3 21.5 -4.9 11 14.6 SSE 22 35 12 19 1019.2 1017.1 0.0
13/11:30am 28.1 20.9 -5.1 11 14.5 SE 24 32 13 17 1019.8 1017.8 0.0
13/11:00am 26.9 19.4 -4.9 12 13.8 SE 26 44 14 24 1020.3 1018.3 0.0
13/10:30am 26.7 19.5 -5.0 12 13.7 SSE 24 37 13 20 1020.6 1018.6 0.0
13/10:00am 26.3 19.6 -4.3 13 13.4 SSE 22 35 12 19 1020.9 1018.9 0.0
13/09:30am 24.9 17.7 -5.4 13 12.8 SSE 24 39 13 21 1021.1 1019.0 0.0
13/09:00am 24.1 16.8 -6.0 13 12.4 SSE 24 39 13 21 1021.2 1019.1 0.0
13/08:30am 23.6 16.4 -5.4 14 12.1 SSE 24 41 13 22 1021.2 1019.1 0.0
13/08:00am 22.3 14.8 -4.7 16 11.3 SSE 26 39 14 21 1021.2 1019.1 0.0
13/07:30am 21.6 14.5 -4.5 17 10.8 SSE 24 39 13 21 1020.9 1018.9 0.0
13/07:00am 21.1 14.0 -4.1 18 10.5 SSE 24 35 13 19 1020.8 1018.8 0.0
13/06:30am 20.5 13.9 -3.2 20 10.0 SSE 22 33 12 18 1020.3 1018.3 0.0
13/06:00am 20.0 14.5 -2.3 22 9.5 SSE 17 24 9 13 1019.9 1017.9 0.0
13/05:30am 20.0 14.6 -1.7 23 9.4 SSE 17 24 9 13 1019.4 1017.3 0.0
13/05:00am 20.4 15.3 -2.0 22 9.7 SSE 15 22 8 12 1019.1 1017.0 0.0
13/04:30am 20.7 15.6 -1.8 22 9.8 SSE 15 22 8 12 1018.7 1016.6 0.0
13/04:00am 21.4 15.9 -1.8 21 10.2 SSE 17 26 9 14 1018.5 1016.4 0.0
13/03:30am 21.7 15.9 -1.6 21 10.3 SSE 19 28 10 15 1018.3 1016.2 0.0
13/03:00am 22.1 16.2 -1.9 20 10.6 SSE 19 30 10 16 1018.2 1016.1 0.0
13/02:30am 22.6 16.8 -1.5 20 10.7 SSE 19 24 10 13 1018.1 1016.0 0.0
13/02:00am 23.1 17.7 -1.1 20 10.9 SSE 17 24 9 13 1018.2 1016.1 0.0
13/01:30am 23.9 17.2 -1.1 19 11.3 SSE 24 32 13 17 1018.1 1016.0 0.0
13/01:00am 24.4 18.7 -0.7 19 11.5 SSE 19 28 10 15 1018.2 1016.1 0.0
13/12:30am 25.1 18.5 -0.1 19 11.8 SSE 24 43 13 23 1018.2 1016.1 0.0
13/12:00am 26.5 18.9 0.3 18 12.4 SSE 30 50 16 27 1017.9 1015.8 0.0
 
Date/Time
CST
Temp
°C
App
Temp
°C
Dew
Point
°C
Rel
Hum
%
Delta-T
°C
Wind Press
QNH
hPa
Press
MSL
hPa
Rain since
9am
mm
Dir  Spd
km/h
Gust
km/h
Spd
kts
Gust
kts
12/11:41pm 27.4 20.1 0.2 17 13.0 SSE 28 46 15 25 1017.7 1015.7 0.0
12/11:30pm 28.0 21.4 -0.1 16 13.4 SSE 24 41 13 22 1017.5 1015.5 0.0
12/11:00pm 28.6 22.2 -1.5 14 14.1 SSE 22 37 12 20 1017.3 1015.3 0.0
12/10:30pm 29.4 23.0 -1.9 13 14.6 SSE 22 43 12 23 1016.9 1014.8 0.0
12/10:00pm 29.8 23.7 -2.6 12 15.0 SSE 20 28 11 15 1016.5 1014.4 0.0

Other formats

Comma delimited format used in spreadsheet applications
http://www.bom.gov.au/fwo/IDD60801/IDD60801.94327.axf

JavaScript Object Notation format (JSON) in row-major order
http://www.bom.gov.au/fwo/IDD60801/IDD60801.94327.json

Data quality

Most of these data are generated automatically and are frequently updated. Quality checks on data are not normally performed. It is possible for incorrect values to appear. Refer to information at About Latest Weather Observations and please check the disclaimer before using these data.